sensor_id;sensor_type;location;lat;lon;timestamp;P1;durP1;ratioP1;P2;durP2;ratioP2
29430;SDS011;16404;49.902;10.074;2023-04-06T00:00:11;14.77;;;9.25;;
29430;SDS011;16404;49.902;10.074;2023-04-06T00:02:56;18.40;;;9.77;;
29430;SDS011;16404;49.902;10.074;2023-04-06T00:05:41;15.63;;;9.40;;
29430;SDS011;16404;49.902;10.074;2023-04-06T00:08:26;16.60;;;9.57;;
29430;SDS011;16404;49.902;10.074;2023-04-06T00:11:10;13.50;;;8.65;;
29430;SDS011;16404;49.902;10.074;2023-04-06T00:13:55;15.88;;;9.77;;
29430;SDS011;16404;49.902;10.074;2023-04-06T00:16:39;13.93;;;9.38;;
29430;SDS011;16404;49.902;10.074;2023-04-06T00:19:24;18.00;;;10.40;;
29430;SDS011;16404;49.902;10.074;2023-04-06T00:22:09;19.17;;;10.65;;
29430;SDS011;16404;49.902;10.074;2023-04-06T00:24:53;16.17;;;10.02;;
29430;SDS011;16404;49.902;10.074;2023-04-06T00:27:38;18.05;;;10.20;;
29430;SDS011;16404;49.902;10.074;2023-04-06T00:30:23;16.77;;;9.98;;
29430;SDS011;16404;49.902;10.074;2023-04-06T00:33:07;17.30;;;9.90;;
29430;SDS011;16404;49.902;10.074;2023-04-06T00:35:52;17.92;;;9.52;;
29430;SDS011;16404;49.902;10.074;2023-04-06T00:38:36;16.88;;;9.90;;
29430;SDS011;16404;49.902;10.074;2023-04-06T00:41:21;15.55;;;9.32;;
29430;SDS011;16404;49.902;10.074;2023-04-06T00:44:05;16.17;;;9.57;;
29430;SDS011;16404;49.902;10.074;2023-04-06T00:46:50;17.50;;;9.50;;
29430;SDS011;16404;49.902;10.074;2023-04-06T00:49:35;18.17;;;10.50;;
29430;SDS011;16404;49.902;10.074;2023-04-06T00:52:20;15.32;;;9.63;;
29430;SDS011;16404;49.902;10.074;2023-04-06T00:55:06;23.02;;;12.80;;
29430;SDS011;16404;49.902;10.074;2023-04-06T00:57:57;19.90;;;11.18;;
29430;SDS011;16404;49.902;10.074;2023-04-06T01:00:44;22.35;;;11.50;;
29430;SDS011;16404;49.902;10.074;2023-04-06T01:03:34;21.83;;;12.32;;
29430;SDS011;16404;49.902;10.074;2023-04-06T01:06:18;21.80;;;12.10;;
29430;SDS011;16404;49.902;10.074;2023-04-06T01:09:11;22.17;;;12.23;;
29430;SDS011;16404;49.902;10.074;2023-04-06T01:11:56;27.92;;;12.75;;
29430;SDS011;16404;49.902;10.074;2023-04-06T01:14:46;22.60;;;12.15;;
29430;SDS011;16404;49.902;10.074;2023-04-06T01:17:31;22.55;;;12.73;;
29430;SDS011;16404;49.902;10.074;2023-04-06T01:20:23;23.08;;;13.00;;
29430;SDS011;16404;49.902;10.074;2023-04-06T01:23:09;23.45;;;12.95;;
29430;SDS011;16404;49.902;10.074;2023-04-06T01:26:00;20.17;;;12.50;;
29430;SDS011;16404;49.902;10.074;2023-04-06T01:28:46;24.73;;;13.38;;
29430;SDS011;16404;49.902;10.074;2023-04-06T01:31:42;24.50;;;13.73;;
29430;SDS011;16404;49.902;10.074;2023-04-06T01:34:27;27.55;;;14.40;;
29430;SDS011;16404;49.902;10.074;2023-04-06T01:37:15;25.70;;;14.45;;
29430;SDS011;16404;49.902;10.074;2023-04-06T01:42:57;21.88;;;13.45;;
29430;SDS011;16404;49.902;10.074;2023-04-06T01:45:51;25.08;;;13.63;;
29430;SDS011;16404;49.902;10.074;2023-04-06T01:48:38;21.00;;;12.15;;
29430;SDS011;16404;49.902;10.074;2023-04-06T01:51:58;23.60;;;13.38;;
29430;SDS011;16404;49.902;10.074;2023-04-06T01:57:48;29.70;;;14.05;;
29430;SDS011;16404;49.902;10.074;2023-04-06T02:00:46;22.23;;;13.45;;
29430;SDS011;16404;49.902;10.074;2023-04-06T02:06:22;21.27;;;13.25;;
29430;SDS011;16404;49.902;10.074;2023-04-06T02:09:07;22.92;;;13.50;;
29430;SDS011;16404;49.902;10.074;2023-04-06T02:11:52;22.95;;;14.00;;
29430;SDS011;16404;49.902;10.074;2023-04-06T02:14:36;25.77;;;14.35;;
29430;SDS011;16404;49.902;10.074;2023-04-06T02:20:05;23.80;;;13.38;;
29430;SDS011;16404;49.902;10.074;2023-04-06T02:22:50;22.42;;;12.75;;
29430;SDS011;16404;49.902;10.074;2023-04-06T02:25:35;19.23;;;11.70;;
29430;SDS011;16404;49.902;10.074;2023-04-06T02:28:20;25.35;;;13.82;;
29430;SDS011;16404;49.902;10.074;2023-04-06T02:31:05;22.65;;;13.30;;
29430;SDS011;16404;49.902;10.074;2023-04-06T02:33:49;25.92;;;13.57;;
29430;SDS011;16404;49.902;10.074;2023-04-06T02:36:34;27.83;;;14.80;;
29430;SDS011;16404;49.902;10.074;2023-04-06T02:39:19;24.77;;;15.02;;
29430;SDS011;16404;49.902;10.074;2023-04-06T02:42:04;26.95;;;14.50;;
29430;SDS011;16404;49.902;10.074;2023-04-06T02:44:48;23.42;;;14.43;;
29430;SDS011;16404;49.902;10.074;2023-04-06T02:47:34;28.17;;;15.02;;
29430;SDS011;16404;49.902;10.074;2023-04-06T02:50:19;24.42;;;14.15;;
29430;SDS011;16404;49.902;10.074;2023-04-06T02:53:11;24.63;;;13.55;;
29430;SDS011;16404;49.902;10.074;2023-04-06T02:55:57;22.63;;;12.95;;
29430;SDS011;16404;49.902;10.074;2023-04-06T02:58:47;22.55;;;13.52;;
29430;SDS011;16404;49.902;10.074;2023-04-06T03:01:32;22.55;;;13.63;;
29430;SDS011;16404;49.902;10.074;2023-04-06T03:04:20;23.70;;;13.40;;
29430;SDS011;16404;49.902;10.074;2023-04-06T03:07:07;22.55;;;13.43;;
29430;SDS011;16404;49.902;10.074;2023-04-06T03:09:56;22.52;;;14.15;;
29430;SDS011;16404;49.902;10.074;2023-04-06T03:12:40;23.58;;;13.15;;
29430;SDS011;16404;49.902;10.074;2023-04-06T03:15:28;23.27;;;12.55;;
29430;SDS011;16404;49.902;10.074;2023-04-06T03:18:23;27.90;;;15.65;;
29430;SDS011;16404;49.902;10.074;2023-04-06T03:21:10;25.80;;;13.90;;
29430;SDS011;16404;49.902;10.074;2023-04-06T03:24:04;21.38;;;12.88;;
29430;SDS011;16404;49.902;10.074;2023-04-06T03:26:49;20.58;;;12.27;;
29430;SDS011;16404;49.902;10.074;2023-04-06T03:29:33;22.02;;;12.35;;
29430;SDS011;16404;49.902;10.074;2023-04-06T03:32:18;18.35;;;11.98;;
29430;SDS011;16404;49.902;10.074;2023-04-06T03:35:04;23.50;;;13.32;;
29430;SDS011;16404;49.902;10.074;2023-04-06T03:37:49;23.17;;;12.90;;
29430;SDS011;16404;49.902;10.074;2023-04-06T03:40:33;23.38;;;11.98;;
29430;SDS011;16404;49.902;10.074;2023-04-06T03:43:18;18.70;;;11.32;;
29430;SDS011;16404;49.902;10.074;2023-04-06T03:46:02;21.15;;;11.85;;
29430;SDS011;16404;49.902;10.074;2023-04-06T03:51:34;19.05;;;10.25;;
29430;SDS011;16404;49.902;10.074;2023-04-06T03:54:19;18.55;;;10.45;;
29430;SDS011;16404;49.902;10.074;2023-04-06T03:57:04;18.25;;;10.80;;
29430;SDS011;16404;49.902;10.074;2023-04-06T03:59:48;15.52;;;10.45;;
29430;SDS011;16404;49.902;10.074;2023-04-06T04:02:33;19.02;;;10.50;;
29430;SDS011;16404;49.902;10.074;2023-04-06T04:05:18;20.65;;;11.63;;
29430;SDS011;16404;49.902;10.074;2023-04-06T04:08:03;29.42;;;12.80;;
29430;SDS011;16404;49.902;10.074;2023-04-06T04:10:48;27.08;;;12.43;;
29430;SDS011;16404;49.902;10.074;2023-04-06T04:13:32;17.33;;;11.00;;
29430;SDS011;16404;49.902;10.074;2023-04-06T04:16:19;19.38;;;11.40;;
29430;SDS011;16404;49.902;10.074;2023-04-06T04:19:04;24.58;;;13.13;;
29430;SDS011;16404;49.902;10.074;2023-04-06T04:21:49;18.58;;;10.93;;
29430;SDS011;16404;49.902;10.074;2023-04-06T04:24:38;22.10;;;11.85;;
29430;SDS011;16404;49.902;10.074;2023-04-06T04:27:23;17.92;;;11.43;;
29430;SDS011;16404;49.902;10.074;2023-04-06T04:30:09;20.75;;;11.35;;
29430;SDS011;16404;49.902;10.074;2023-04-06T04:32:54;20.58;;;11.70;;
29430;SDS011;16404;49.902;10.074;2023-04-06T04:35:40;20.85;;;11.38;;
29430;SDS011;16404;49.902;10.074;2023-04-06T04:38:27;21.33;;;11.48;;
29430;SDS011;16404;49.902;10.074;2023-04-06T04:41:14;21.40;;;11.63;;
29430;SDS011;16404;49.902;10.074;2023-04-06T04:44:01;21.00;;;11.52;;
29430;SDS011;16404;49.902;10.074;2023-04-06T04:46:46;21.55;;;11.15;;
29430;SDS011;16404;49.902;10.074;2023-04-06T04:49:32;20.90;;;11.40;;
29430;SDS011;16404;49.902;10.074;2023-04-06T04:52:17;17.70;;;10.07;;
29430;SDS011;16404;49.902;10.074;2023-04-06T04:55:24;18.55;;;10.38;;
29430;SDS011;16404;49.902;10.074;2023-04-06T04:58:12;18.25;;;10.75;;
29430;SDS011;16404;49.902;10.074;2023-04-06T05:01:18;20.52;;;11.32;;
29430;SDS011;16404;49.902;10.074;2023-04-06T05:04:04;21.65;;;11.68;;
29430;SDS011;16404;49.902;10.074;2023-04-06T05:06:48;19.23;;;11.38;;
29430;SDS011;16404;49.902;10.074;2023-04-06T05:09:34;18.20;;;10.95;;
29430;SDS011;16404;49.902;10.074;2023-04-06T05:12:19;20.25;;;12.73;;
29430;SDS011;16404;49.902;10.074;2023-04-06T05:15:30;20.67;;;12.13;;
29430;SDS011;16404;49.902;10.074;2023-04-06T05:18:22;19.65;;;12.80;;
29430;SDS011;16404;49.902;10.074;2023-04-06T05:21:07;21.63;;;13.25;;
29430;SDS011;16404;49.902;10.074;2023-04-06T05:24:09;22.52;;;13.57;;
29430;SDS011;16404;49.902;10.074;2023-04-06T05:26:54;23.52;;;12.45;;
29430;SDS011;16404;49.902;10.074;2023-04-06T05:29:41;20.55;;;12.13;;
29430;SDS011;16404;49.902;10.074;2023-04-06T05:32:27;23.85;;;13.05;;
29430;SDS011;16404;49.902;10.074;2023-04-06T05:35:11;22.50;;;13.35;;
29430;SDS011;16404;49.902;10.074;2023-04-06T05:37:58;21.40;;;12.73;;
29430;SDS011;16404;49.902;10.074;2023-04-06T05:40:44;27.02;;;13.30;;
29430;SDS011;16404;49.902;10.074;2023-04-06T05:43:32;23.42;;;12.57;;
29430;SDS011;16404;49.902;10.074;2023-04-06T05:46:18;21.42;;;10.90;;
29430;SDS011;16404;49.902;10.074;2023-04-06T05:49:03;23.92;;;11.75;;
29430;SDS011;16404;49.902;10.074;2023-04-06T05:51:50;18.85;;;11.70;;
29430;SDS011;16404;49.902;10.074;2023-04-06T05:54:36;19.65;;;11.82;;
29430;SDS011;16404;49.902;10.074;2023-04-06T05:57:21;18.40;;;11.88;;
29430;SDS011;16404;49.902;10.074;2023-04-06T06:00:07;23.75;;;12.52;;
29430;SDS011;16404;49.902;10.074;2023-04-06T06:02:56;21.90;;;12.32;;
29430;SDS011;16404;49.902;10.074;2023-04-06T06:05:45;22.20;;;11.65;;
29430;SDS011;16404;49.902;10.074;2023-04-06T06:08:36;25.45;;;12.45;;
29430;SDS011;16404;49.902;10.074;2023-04-06T06:11:27;22.77;;;12.90;;
29430;SDS011;16404;49.902;10.074;2023-04-06T06:14:12;28.40;;;13.25;;
29430;SDS011;16404;49.902;10.074;2023-04-06T06:16:58;24.05;;;12.43;;
29430;SDS011;16404;49.902;10.074;2023-04-06T06:19:44;26.45;;;13.20;;
29430;SDS011;16404;49.902;10.074;2023-04-06T06:22:29;21.67;;;12.45;;
29430;SDS011;16404;49.902;10.074;2023-04-06T06:25:14;25.13;;;12.73;;
29430;SDS011;16404;49.902;10.074;2023-04-06T06:27:59;17.02;;;10.75;;
29430;SDS011;16404;49.902;10.074;2023-04-06T06:30:47;17.73;;;11.45;;
29430;SDS011;16404;49.902;10.074;2023-04-06T06:33:37;19.10;;;10.85;;
29430;SDS011;16404;49.902;10.074;2023-04-06T06:36:21;16.40;;;10.52;;
29430;SDS011;16404;49.902;10.074;2023-04-06T06:39:07;15.48;;;10.82;;
29430;SDS011;16404;49.902;10.074;2023-04-06T06:41:51;17.30;;;11.45;;
29430;SDS011;16404;49.902;10.074;2023-04-06T06:44:40;16.73;;;10.02;;
29430;SDS011;16404;49.902;10.074;2023-04-06T06:47:25;15.50;;;10.32;;
29430;SDS011;16404;49.902;10.074;2023-04-06T06:50:10;22.85;;;10.90;;
29430;SDS011;16404;49.902;10.074;2023-04-06T06:52:54;21.60;;;10.13;;
29430;SDS011;16404;49.902;10.074;2023-04-06T06:55:39;14.85;;;9.50;;
29430;SDS011;16404;49.902;10.074;2023-04-06T07:01:08;14.25;;;8.93;;
29430;SDS011;16404;49.902;10.074;2023-04-06T07:03:54;16.23;;;10.13;;
29430;SDS011;16404;49.902;10.074;2023-04-06T07:06:38;14.82;;;9.75;;
29430;SDS011;16404;49.902;10.074;2023-04-06T07:09:24;16.38;;;9.93;;
29430;SDS011;16404;49.902;10.074;2023-04-06T07:12:10;17.20;;;10.30;;
29430;SDS011;16404;49.902;10.074;2023-04-06T07:14:54;17.83;;;10.23;;
29430;SDS011;16404;49.902;10.074;2023-04-06T07:17:39;19.38;;;10.15;;
29430;SDS011;16404;49.902;10.074;2023-04-06T07:20:29;17.63;;;9.48;;
29430;SDS011;16404;49.902;10.074;2023-04-06T07:23:14;13.10;;;9.05;;
29430;SDS011;16404;49.902;10.074;2023-04-06T07:25:59;15.50;;;9.40;;
29430;SDS011;16404;49.902;10.074;2023-04-06T07:28:43;15.88;;;8.80;;
29430;SDS011;16404;49.902;10.074;2023-04-06T07:31:29;16.23;;;9.23;;
29430;SDS011;16404;49.902;10.074;2023-04-06T07:34:14;12.55;;;8.52;;
29430;SDS011;16404;49.902;10.074;2023-04-06T07:36:58;15.63;;;9.43;;
29430;SDS011;16404;49.902;10.074;2023-04-06T07:39:45;15.98;;;9.20;;
29430;SDS011;16404;49.902;10.074;2023-04-06T07:42:30;16.70;;;9.35;;
29430;SDS011;16404;49.902;10.074;2023-04-06T07:45:16;18.98;;;9.50;;
29430;SDS011;16404;49.902;10.074;2023-04-06T07:48:01;12.63;;;9.07;;
29430;SDS011;16404;49.902;10.074;2023-04-06T07:50:47;14.85;;;9.45;;
29430;SDS011;16404;49.902;10.074;2023-04-06T07:53:32;16.85;;;9.85;;
29430;SDS011;16404;49.902;10.074;2023-04-06T07:56:17;17.55;;;9.80;;
29430;SDS011;16404;49.902;10.074;2023-04-06T07:59:02;14.13;;;9.88;;
29430;SDS011;16404;49.902;10.074;2023-04-06T08:01:46;16.45;;;9.88;;
29430;SDS011;16404;49.902;10.074;2023-04-06T08:04:31;14.75;;;10.38;;
29430;SDS011;16404;49.902;10.074;2023-04-06T08:07:16;16.42;;;10.43;;
29430;SDS011;16404;49.902;10.074;2023-04-06T08:10:01;14.43;;;10.10;;
29430;SDS011;16404;49.902;10.074;2023-04-06T08:12:45;15.88;;;10.40;;
29430;SDS011;16404;49.902;10.074;2023-04-06T08:15:30;17.25;;;10.25;;
29430;SDS011;16404;49.902;10.074;2023-04-06T08:18:15;15.70;;;9.45;;
29430;SDS011;16404;49.902;10.074;2023-04-06T08:20:59;17.13;;;9.98;;
29430;SDS011;16404;49.902;10.074;2023-04-06T08:23:44;18.17;;;10.07;;
29430;SDS011;16404;49.902;10.074;2023-04-06T08:26:29;13.35;;;9.88;;
29430;SDS011;16404;49.902;10.074;2023-04-06T08:29:14;13.68;;;9.75;;
29430;SDS011;16404;49.902;10.074;2023-04-06T08:31:59;17.65;;;10.25;;
29430;SDS011;16404;49.902;10.074;2023-04-06T08:34:47;14.32;;;9.38;;
29430;SDS011;16404;49.902;10.074;2023-04-06T08:37:31;16.27;;;10.10;;
29430;SDS011;16404;49.902;10.074;2023-04-06T08:40:16;14.63;;;9.82;;
29430;SDS011;16404;49.902;10.074;2023-04-06T08:43:00;16.48;;;10.02;;
29430;SDS011;16404;49.902;10.074;2023-04-06T08:45:52;13.93;;;9.98;;
29430;SDS011;16404;49.902;10.074;2023-04-06T08:48:38;15.77;;;9.90;;
29430;SDS011;16404;49.902;10.074;2023-04-06T08:51:24;14.48;;;10.15;;
29430;SDS011;16404;49.902;10.074;2023-04-06T08:54:11;15.90;;;10.48;;
29430;SDS011;16404;49.902;10.074;2023-04-06T08:56:56;17.20;;;10.27;;
29430;SDS011;16404;49.902;10.074;2023-04-06T09:02:26;14.90;;;10.55;;
29430;SDS011;16404;49.902;10.074;2023-04-06T09:05:11;16.80;;;11.73;;
29430;SDS011;16404;49.902;10.074;2023-04-06T09:10:41;17.05;;;10.38;;
29430;SDS011;16404;49.902;10.074;2023-04-06T09:13:25;16.58;;;10.93;;
29430;SDS011;16404;49.902;10.074;2023-04-06T09:16:10;16.00;;;11.20;;
29430;SDS011;16404;49.902;10.074;2023-04-06T09:18:54;18.33;;;10.50;;
29430;SDS011;16404;49.902;10.074;2023-04-06T09:21:48;13.82;;;10.65;;
29430;SDS011;16404;49.902;10.074;2023-04-06T09:24:41;14.32;;;10.40;;
29430;SDS011;16404;49.902;10.074;2023-04-06T09:27:35;22.48;;;11.45;;
29430;SDS011;16404;49.902;10.074;2023-04-06T09:30:21;17.10;;;11.70;;
29430;SDS011;16404;49.902;10.074;2023-04-06T09:33:08;20.35;;;11.45;;
29430;SDS011;16404;49.902;10.074;2023-04-06T09:35:54;19.10;;;10.75;;
29430;SDS011;16404;49.902;10.074;2023-04-06T09:38:50;19.83;;;11.20;;
29430;SDS011;16404;49.902;10.074;2023-04-06T09:41:35;13.98;;;10.57;;
29430;SDS011;16404;49.902;10.074;2023-04-06T09:44:20;14.88;;;10.38;;
29430;SDS011;16404;49.902;10.074;2023-04-06T09:47:05;14.90;;;9.98;;
29430;SDS011;16404;49.902;10.074;2023-04-06T09:49:55;14.55;;;10.68;;
29430;SDS011;16404;49.902;10.074;2023-04-06T09:55:39;18.88;;;10.90;;
29430;SDS011;16404;49.902;10.074;2023-04-06T09:58:25;15.90;;;10.73;;
29430;SDS011;16404;49.902;10.074;2023-04-06T10:01:12;16.10;;;11.40;;
29430;SDS011;16404;49.902;10.074;2023-04-06T10:07:23;17.83;;;11.05;;
29430;SDS011;16404;49.902;10.074;2023-04-06T10:10:08;19.55;;;10.95;;
29430;SDS011;16404;49.902;10.074;2023-04-06T10:12:54;15.00;;;10.98;;
29430;SDS011;16404;49.902;10.074;2023-04-06T10:15:39;17.42;;;11.75;;
29430;SDS011;16404;49.902;10.074;2023-04-06T10:18:26;17.48;;;11.93;;
29430;SDS011;16404;49.902;10.074;2023-04-06T10:21:12;20.60;;;12.30;;
29430;SDS011;16404;49.902;10.074;2023-04-06T10:24:06;20.10;;;11.20;;
29430;SDS011;16404;49.902;10.074;2023-04-06T10:27:02;16.67;;;11.68;;
29430;SDS011;16404;49.902;10.074;2023-04-06T10:29:48;19.50;;;11.75;;
29430;SDS011;16404;49.902;10.074;2023-04-06T10:32:36;22.35;;;11.38;;
29430;SDS011;16404;49.902;10.074;2023-04-06T10:35:21;17.30;;;11.63;;
29430;SDS011;16404;49.902;10.074;2023-04-06T10:40:51;16.45;;;11.02;;
29430;SDS011;16404;49.902;10.074;2023-04-06T10:43:36;20.88;;;11.73;;
29430;SDS011;16404;49.902;10.074;2023-04-06T10:46:26;18.58;;;10.98;;
29430;SDS011;16404;49.902;10.074;2023-04-06T10:49:11;20.45;;;11.63;;
29430;SDS011;16404;49.902;10.074;2023-04-06T10:51:56;21.17;;;10.98;;
29430;SDS011;16404;49.902;10.074;2023-04-06T10:54:42;17.73;;;10.93;;
29430;SDS011;16404;49.902;10.074;2023-04-06T10:57:29;17.48;;;10.85;;
29430;SDS011;16404;49.902;10.074;2023-04-06T11:00:17;17.00;;;10.82;;
29430;SDS011;16404;49.902;10.074;2023-04-06T11:03:03;17.38;;;11.15;;
29430;SDS011;16404;49.902;10.074;2023-04-06T11:05:48;16.27;;;10.13;;
29430;SDS011;16404;49.902;10.074;2023-04-06T11:08:34;17.48;;;9.70;;
29430;SDS011;16404;49.902;10.074;2023-04-06T11:11:20;17.90;;;10.65;;
29430;SDS011;16404;49.902;10.074;2023-04-06T11:14:06;16.92;;;11.23;;
29430;SDS011;16404;49.902;10.074;2023-04-06T11:16:54;16.42;;;10.80;;
29430;SDS011;16404;49.902;10.074;2023-04-06T11:19:38;20.48;;;11.30;;
29430;SDS011;16404;49.902;10.074;2023-04-06T11:22:24;20.05;;;10.85;;
29430;SDS011;16404;49.902;10.074;2023-04-06T11:25:09;18.30;;;10.20;;
29430;SDS011;16404;49.902;10.074;2023-04-06T11:27:53;18.63;;;10.32;;
29430;SDS011;16404;49.902;10.074;2023-04-06T11:30:38;17.52;;;10.93;;
29430;SDS011;16404;49.902;10.074;2023-04-06T11:33:23;18.98;;;10.90;;
29430;SDS011;16404;49.902;10.074;2023-04-06T11:36:08;17.70;;;10.07;;
29430;SDS011;16404;49.902;10.074;2023-04-06T11:38:52;17.17;;;10.48;;
29430;SDS011;16404;49.902;10.074;2023-04-06T11:41:37;20.17;;;11.05;;
29430;SDS011;16404;49.902;10.074;2023-04-06T11:44:29;19.67;;;10.88;;
29430;SDS011;16404;49.902;10.074;2023-04-06T11:47:33;17.00;;;10.75;;
29430;SDS011;16404;49.902;10.074;2023-04-06T11:50:18;16.95;;;10.63;;
29430;SDS011;16404;49.902;10.074;2023-04-06T11:53:03;18.02;;;10.88;;
29430;SDS011;16404;49.902;10.074;2023-04-06T11:55:48;21.42;;;11.45;;
29430;SDS011;16404;49.902;10.074;2023-04-06T11:58:32;21.85;;;11.35;;
29430;SDS011;16404;49.902;10.074;2023-04-06T12:01:17;18.27;;;10.95;;
29430;SDS011;16404;49.902;10.074;2023-04-06T12:04:02;16.88;;;10.25;;
29430;SDS011;16404;49.902;10.074;2023-04-06T12:06:47;22.27;;;11.20;;
29430;SDS011;16404;49.902;10.074;2023-04-06T12:12:18;16.85;;;10.80;;
29430;SDS011;16404;49.902;10.074;2023-04-06T12:15:02;18.38;;;10.57;;
29430;SDS011;16404;49.902;10.074;2023-04-06T12:17:48;17.92;;;11.00;;
29430;SDS011;16404;49.902;10.074;2023-04-06T12:20:36;19.20;;;10.55;;
29430;SDS011;16404;49.902;10.074;2023-04-06T12:23:20;15.77;;;10.70;;
29430;SDS011;16404;49.902;10.074;2023-04-06T12:26:05;18.88;;;10.10;;
29430;SDS011;16404;49.902;10.074;2023-04-06T12:28:50;21.20;;;10.05;;
29430;SDS011;16404;49.902;10.074;2023-04-06T12:31:35;19.35;;;11.15;;
29430;SDS011;16404;49.902;10.074;2023-04-06T12:37:04;14.10;;;9.15;;
29430;SDS011;16404;49.902;10.074;2023-04-06T12:39:49;18.90;;;10.32;;
29430;SDS011;16404;49.902;10.074;2023-04-06T12:42:33;14.23;;;9.90;;
29430;SDS011;16404;49.902;10.074;2023-04-06T12:45:18;14.63;;;9.65;;
29430;SDS011;16404;49.902;10.074;2023-04-06T12:48:03;17.27;;;10.75;;
29430;SDS011;16404;49.902;10.074;2023-04-06T12:50:57;17.15;;;10.63;;
29430;SDS011;16404;49.902;10.074;2023-04-06T12:53:43;21.88;;;10.27;;
29430;SDS011;16404;49.902;10.074;2023-04-06T12:56:28;15.40;;;9.30;;
29430;SDS011;16404;49.902;10.074;2023-04-06T12:59:12;14.35;;;9.23;;
29430;SDS011;16404;49.902;10.074;2023-04-06T13:01:57;16.42;;;9.45;;
29430;SDS011;16404;49.902;10.074;2023-04-06T13:04:41;16.30;;;9.68;;
29430;SDS011;16404;49.902;10.074;2023-04-06T13:07:26;14.10;;;9.68;;
29430;SDS011;16404;49.902;10.074;2023-04-06T13:10:10;15.68;;;8.77;;
29430;SDS011;16404;49.902;10.074;2023-04-06T13:12:55;15.20;;;8.27;;
29430;SDS011;16404;49.902;10.074;2023-04-06T13:15:40;18.95;;;9.07;;
29430;SDS011;16404;49.902;10.074;2023-04-06T13:18:25;16.75;;;9.30;;
29430;SDS011;16404;49.902;10.074;2023-04-06T13:23:57;16.02;;;9.57;;
29430;SDS011;16404;49.902;10.074;2023-04-06T13:26:42;17.98;;;10.13;;
29430;SDS011;16404;49.902;10.074;2023-04-06T13:29:27;13.13;;;8.32;;
29430;SDS011;16404;49.902;10.074;2023-04-06T13:32:11;11.15;;;8.60;;
29430;SDS011;16404;49.902;10.074;2023-04-06T13:34:56;12.85;;;9.57;;
29430;SDS011;16404;49.902;10.074;2023-04-06T13:37:42;16.05;;;9.50;;
29430;SDS011;16404;49.902;10.074;2023-04-06T13:40:26;14.40;;;9.52;;
29430;SDS011;16404;49.902;10.074;2023-04-06T13:43:11;16.23;;;9.27;;
29430;SDS011;16404;49.902;10.074;2023-04-06T13:45:56;14.48;;;8.70;;
29430;SDS011;16404;49.902;10.074;2023-04-06T13:48:43;13.18;;;9.00;;
29430;SDS011;16404;49.902;10.074;2023-04-06T13:51:28;14.57;;;8.97;;
29430;SDS011;16404;49.902;10.074;2023-04-06T13:54:12;12.43;;;8.30;;
29430;SDS011;16404;49.902;10.074;2023-04-06T13:56:57;15.97;;;9.73;;
29430;SDS011;16404;49.902;10.074;2023-04-06T13:59:42;16.02;;;9.43;;
29430;SDS011;16404;49.902;10.074;2023-04-06T14:02:26;16.23;;;9.40;;
29430;SDS011;16404;49.902;10.074;2023-04-06T14:05:11;13.95;;;9.40;;
29430;SDS011;16404;49.902;10.074;2023-04-06T14:07:55;14.45;;;9.38;;
29430;SDS011;16404;49.902;10.074;2023-04-06T14:10:40;18.00;;;9.82;;
29430;SDS011;16404;49.902;10.074;2023-04-06T14:13:26;14.05;;;9.45;;
29430;SDS011;16404;49.902;10.074;2023-04-06T14:16:11;14.07;;;9.45;;
29430;SDS011;16404;49.902;10.074;2023-04-06T14:21:41;14.87;;;9.13;;
29430;SDS011;16404;49.902;10.074;2023-04-06T14:24:27;14.00;;;8.45;;
29430;SDS011;16404;49.902;10.074;2023-04-06T14:27:11;12.15;;;8.73;;
29430;SDS011;16404;49.902;10.074;2023-04-06T14:29:56;13.93;;;7.53;;
29430;SDS011;16404;49.902;10.074;2023-04-06T14:32:41;13.98;;;7.78;;
29430;SDS011;16404;49.902;10.074;2023-04-06T14:35:25;12.73;;;7.68;;
29430;SDS011;16404;49.902;10.074;2023-04-06T14:38:11;12.25;;;7.15;;
29430;SDS011;16404;49.902;10.074;2023-04-06T14:40:56;11.93;;;6.93;;
29430;SDS011;16404;49.902;10.074;2023-04-06T14:43:41;12.82;;;8.13;;
29430;SDS011;16404;49.902;10.074;2023-04-06T14:46:25;6.57;;;5.00;;
29430;SDS011;16404;49.902;10.074;2023-04-06T14:49:13;12.07;;;7.78;;
29430;SDS011;16404;49.902;10.074;2023-04-06T14:51:58;10.93;;;7.35;;
29430;SDS011;16404;49.902;10.074;2023-04-06T14:54:43;13.05;;;7.68;;
29430;SDS011;16404;49.902;10.074;2023-04-06T14:57:28;14.00;;;8.43;;
29430;SDS011;16404;49.902;10.074;2023-04-06T15:00:13;12.40;;;8.13;;
29430;SDS011;16404;49.902;10.074;2023-04-06T15:02:58;12.43;;;7.75;;
29430;SDS011;16404;49.902;10.074;2023-04-06T15:05:42;14.00;;;8.07;;
29430;SDS011;16404;49.902;10.074;2023-04-06T15:08:27;14.95;;;8.32;;
29430;SDS011;16404;49.902;10.074;2023-04-06T15:11:12;13.80;;;7.88;;
29430;SDS011;16404;49.902;10.074;2023-04-06T15:16:44;11.00;;;7.30;;
29430;SDS011;16404;49.902;10.074;2023-04-06T15:19:28;11.98;;;7.97;;
29430;SDS011;16404;49.902;10.074;2023-04-06T15:22:13;12.23;;;7.97;;
29430;SDS011;16404;49.902;10.074;2023-04-06T15:24:58;11.50;;;7.82;;
29430;SDS011;16404;49.902;10.074;2023-04-06T15:27:42;9.60;;;7.88;;
29430;SDS011;16404;49.902;10.074;2023-04-06T15:30:27;13.35;;;7.90;;
29430;SDS011;16404;49.902;10.074;2023-04-06T15:33:11;11.43;;;7.53;;
29430;SDS011;16404;49.902;10.074;2023-04-06T15:35:56;11.70;;;7.60;;
29430;SDS011;16404;49.902;10.074;2023-04-06T15:38:41;11.52;;;7.85;;
29430;SDS011;16404;49.902;10.074;2023-04-06T15:41:26;13.52;;;7.90;;
29430;SDS011;16404;49.902;10.074;2023-04-06T15:44:11;10.30;;;7.70;;
29430;SDS011;16404;49.902;10.074;2023-04-06T15:46:56;12.32;;;7.80;;
29430;SDS011;16404;49.902;10.074;2023-04-06T15:49:40;12.27;;;7.03;;
29430;SDS011;16404;49.902;10.074;2023-04-06T15:52:25;11.82;;;7.75;;
29430;SDS011;16404;49.902;10.074;2023-04-06T15:55:09;13.63;;;7.70;;
29430;SDS011;16404;49.902;10.074;2023-04-06T15:57:54;11.98;;;7.05;;
29430;SDS011;16404;49.902;10.074;2023-04-06T16:00:39;15.07;;;8.50;;
29430;SDS011;16404;49.902;10.074;2023-04-06T16:03:23;13.32;;;8.10;;
29430;SDS011;16404;49.902;10.074;2023-04-06T16:06:08;12.25;;;7.93;;
29430;SDS011;16404;49.902;10.074;2023-04-06T16:08:53;16.35;;;8.82;;
29430;SDS011;16404;49.902;10.074;2023-04-06T16:11:38;12.50;;;8.15;;
29430;SDS011;16404;49.902;10.074;2023-04-06T16:14:23;12.57;;;8.35;;
29430;SDS011;16404;49.902;10.074;2023-04-06T16:17:07;16.48;;;7.65;;
29430;SDS011;16404;49.902;10.074;2023-04-06T16:19:52;14.32;;;8.88;;
29430;SDS011;16404;49.902;10.074;2023-04-06T16:22:36;12.15;;;8.23;;
29430;SDS011;16404;49.902;10.074;2023-04-06T16:25:21;13.50;;;8.65;;
29430;SDS011;16404;49.902;10.074;2023-04-06T16:28:06;15.93;;;8.95;;
29430;SDS011;16404;49.902;10.074;2023-04-06T16:30:50;19.50;;;8.77;;
29430;SDS011;16404;49.902;10.074;2023-04-06T16:33:35;13.50;;;8.32;;
29430;SDS011;16404;49.902;10.074;2023-04-06T16:36:20;13.68;;;8.88;;
29430;SDS011;16404;49.902;10.074;2023-04-06T16:39:12;14.65;;;8.23;;
29430;SDS011;16404;49.902;10.074;2023-04-06T16:41:58;14.63;;;8.35;;
29430;SDS011;16404;49.902;10.074;2023-04-06T16:44:42;16.70;;;8.68;;
29430;SDS011;16404;49.902;10.074;2023-04-06T16:47:27;14.68;;;8.50;;